Time;durP1;ratioP1;P1;durP2;ratioP2;P2;SDS_P1;SDS_P2;PMS_P1;PMS_P2;Temp;Humidity;BMP_temperature;BMP_pressure;BME280_temperature;BME280_humidity;BME280_pressure;Samples;Min_cycle;Max_cycle;Signal;HPM_P1;HPM_P2
2021/11/09 00:01:04;;;;;;;0.60;0.50;;;11.00;99.90;;;;;;6262075;23;20195;-92
2021/11/09 00:03:43;;;;;;;0.70;0.50;;;10.90;99.90;;;;;;6263690;23;20163;-92
2021/11/09 00:06:30;;;;;;;0.40;0.40;;;10.90;99.90;;;;;;6258210;23;20250;-92
2021/11/09 00:09:09;;;;;;;0.90;0.50;;;10.90;99.90;;;;;;6260461;23;20229;-91
2021/11/09 00:11:55;;;;;;;1.10;0.50;;;10.80;99.90;;;;;;6266035;23;20184;-91
2021/11/09 00:14:30;;;;;;;1.27;0.50;;;10.70;99.90;;;;;;6264438;23;20183;-86
2021/11/09 00:17:02;;;;;;;0.70;0.40;;;10.60;99.90;;;;;;6266003;23;20167;-87
2021/11/09 00:19:38;;;;;;;0.97;0.43;;;10.50;99.90;;;;;;6263937;23;20236;-88
2021/11/09 00:22:11;;;;;;;2.50;0.50;;;10.50;99.90;;;;;;6239710;23;20195;-88
2021/11/09 00:24:43;;;;;;;2.10;0.50;;;10.40;99.90;;;;;;6267291;23;20242;-85
2021/11/09 00:27:14;;;;;;;0.70;0.60;;;10.40;99.90;;;;;;6243420;22;20168;-85
2021/11/09 00:29:50;;;;;;;0.77;0.50;;;10.40;99.90;;;;;;6274261;22;20168;-87
2021/11/09 00:32:22;;;;;;;0.73;0.50;;;10.40;99.90;;;;;;6273340;22;20205;-87
2021/11/09 00:34:55;;;;;;;0.97;0.50;;;10.30;99.90;;;;;;6254370;22;20191;-85
2021/11/09 00:37:34;;;;;;;0.80;0.47;;;10.20;99.90;;;;;;6242629;23;20164;-87
2021/11/09 00:40:21;;;;;;;2.03;0.50;;;10.20;99.90;;;;;;6233196;23;20553;-86
2021/11/09 00:42:53;;;;;;;1.20;0.60;;;10.10;99.90;;;;;;6209534;23;20183;-88
2021/11/09 00:45:27;;;;;;;1.27;0.70;;;10.10;99.90;;;;;;6209569;23;20180;-86
2021/11/09 00:48:00;;;;;;;2.17;0.77;;;10.10;99.90;;;;;;6208720;23;20169;-87
2021/11/09 00:50:36;;;;;;;0.43;0.43;;;10.00;99.90;;;;;;6235090;23;20236;-86
2021/11/09 00:53:09;;;;;;;1.17;0.70;;;10.00;99.90;;;;;;6225803;23;20248;-86
2021/11/09 00:55:41;;;;;;;1.60;1.00;;;10.10;99.90;;;;;;6218991;23;20180;-87
2021/11/09 00:58:14;;;;;;;1.97;0.80;;;10.20;99.90;;;;;;6223280;23;20214;-87
2021/11/09 01:00:49;;;;;;;0.77;0.70;;;10.10;99.90;;;;;;6235768;23;20229;-87
2021/11/09 01:03:21;;;;;;;1.03;0.70;;;10.10;99.90;;;;;;6230680;23;20275;-87
2021/11/09 01:05:54;;;;;;;0.93;0.60;;;10.20;99.90;;;;;;6223746;23;20172;-88
2021/11/09 01:08:25;;;;;;;0.87;0.77;;;10.10;99.90;;;;;;6225932;23;20259;-87
2021/11/09 01:10:57;;;;;;;0.67;0.60;;;10.10;99.90;;;;;;6232587;23;20200;-88
2021/11/09 01:13:30;;;;;;;1.80;0.70;;;10.20;99.90;;;;;;6206355;23;20169;-87
2021/11/09 01:16:06;;;;;;;0.60;0.57;;;10.10;99.90;;;;;;6231522;23;20184;-86
2021/11/09 01:18:40;;;;;;;0.90;0.67;;;10.10;99.90;;;;;;6233104;23;20191;-87
2021/11/09 01:21:14;;;;;;;19.00;13.33;;;10.10;99.90;;;;;;6230773;23;20172;-87
2021/11/09 01:23:47;;;;;;;1.10;0.93;;;10.00;99.90;;;;;;6229965;23;20185;-86
2021/11/09 01:26:19;;;;;;;7.90;4.53;;;10.00;99.90;;;;;;6206765;23;20176;-86
2021/11/09 01:28:53;;;;;;;2.20;1.37;;;10.00;99.90;;;;;;6230206;23;20184;-87
2021/11/09 01:31:27;;;;;;;1.67;0.50;;;10.00;99.90;;;;;;6220502;23;20195;-88
2021/11/09 01:33:59;;;;;;;3.13;0.70;;;10.00;99.90;;;;;;6233325;23;20180;-88
2021/11/09 01:36:32;;;;;;;2.93;2.37;;;10.00;99.90;;;;;;6230855;23;20180;-86
2021/11/09 01:39:04;;;;;;;1.53;0.87;;;10.00;99.90;;;;;;6232546;23;20271;-86
2021/11/09 01:41:36;;;;;;;1.00;0.60;;;10.00;99.90;;;;;;6232753;23;20169;-87
2021/11/09 01:44:08;;;;;;;1.03;0.57;;;10.10;99.90;;;;;;6230415;23;20263;-85
2021/11/09 01:46:46;;;;;;;0.50;0.50;;;10.10;99.90;;;;;;6234636;23;20180;-87
2021/11/09 01:49:25;;;;;;;0.50;0.40;;;10.20;99.90;;;;;;6232346;23;20187;-87
2021/11/09 01:51:58;;;;;;;0.87;0.60;;;10.20;99.90;;;;;;6237625;23;20178;-87
2021/11/09 01:54:30;;;;;;;0.80;0.57;;;10.20;99.90;;;;;;6232545;23;20177;-88
2021/11/09 01:57:02;;;;;;;2.93;0.50;;;10.20;99.90;;;;;;6232919;23;20216;-88
2021/11/09 01:59:33;;;;;;;2.87;0.70;;;10.10;99.90;;;;;;6230614;23;20208;-87
2021/11/09 02:02:08;;;;;;;0.87;0.57;;;10.10;99.90;;;;;;6232765;23;20184;-88
2021/11/09 02:04:40;;;;;;;1.53;0.60;;;10.00;99.90;;;;;;6235610;23;20168;-86
2021/11/09 02:07:12;;;;;;;0.73;0.60;;;10.00;99.90;;;;;;6235981;23;20195;-87
2021/11/09 02:09:45;;;;;;;0.90;0.60;;;10.00;99.90;;;;;;6233692;23;20199;-87
2021/11/09 02:12:17;;;;;;;0.70;0.70;;;10.00;99.90;;;;;;6229812;23;20228;-87
2021/11/09 02:14:49;;;;;;;0.93;0.60;;;9.90;99.90;;;;;;6228294;23;20215;-87
2021/11/09 02:17:22;;;;;;;2.83;0.63;;;9.80;99.90;;;;;;6206872;23;20226;-88
2021/11/09 02:19:53;;;;;;;1.87;0.63;;;9.80;99.90;;;;;;6223609;23;20199;-88
2021/11/09 02:22:30;;;;;;;2.93;0.60;;;9.80;99.90;;;;;;6228869;23;20588;-87
2021/11/09 02:25:01;;;;;;;1.90;0.40;;;9.70;99.90;;;;;;6229145;23;20677;-87
2021/11/09 02:27:33;;;;;;;2.13;0.43;;;9.70;99.90;;;;;;6231996;23;20164;-86
2021/11/09 02:32:48;;;;;;;1.43;0.63;;;9.60;99.90;;;;;;6263255;22;20245;-87
2021/11/09 02:35:22;;;;;;;1.93;0.63;;;9.60;99.90;;;;;;6266038;23;20223;-89
2021/11/09 02:37:59;;;;;;;2.77;0.83;;;9.60;99.90;;;;;;6269998;22;20176;-87
2021/11/09 02:40:31;;;;;;;0.90;0.60;;;9.60;99.90;;;;;;6267558;23;20203;-86
2021/11/09 02:43:05;;;;;;;4.57;0.97;;;9.70;99.90;;;;;;6237486;23;20190;-88
2021/11/09 02:45:42;;;;;;;0.70;0.60;;;9.70;99.90;;;;;;6238538;23;20231;-92
2021/11/09 02:48:16;;;;;;;5.03;0.90;;;9.80;99.90;;;;;;6262179;23;20231;-91
2021/11/09 02:50:54;;;;;;;3.47;1.17;;;9.80;99.90;;;;;;6271872;22;20235;-92
2021/11/09 02:53:34;;;;;;;2.70;1.20;;;9.80;99.90;;;;;;6272361;22;20171;-92
2021/11/09 02:56:12;;;;;;;2.47;0.80;;;9.80;99.90;;;;;;6271447;22;20171;-92
2021/11/09 02:58:50;;;;;;;1.83;0.73;;;9.80;99.90;;;;;;6265328;22;20175;-90
2021/11/09 03:01:27;;;;;;;1.30;1.00;;;9.80;99.90;;;;;;6265842;22;20191;-92
2021/11/09 03:04:04;;;;;;;2.07;0.60;;;9.80;99.90;;;;;;6270408;22;20230;-92
2021/11/09 03:06:40;;;;;;;2.17;0.60;;;9.80;99.90;;;;;;6263135;23;20546;-92
2021/11/09 03:09:19;;;;;;;2.20;0.80;;;9.80;99.90;;;;;;6266115;23;20170;-92
2021/11/09 03:11:55;;;;;;;1.90;0.80;;;9.80;99.90;;;;;;6264183;23;20193;-92
2021/11/09 03:14:28;;;;;;;2.97;0.60;;;9.90;99.90;;;;;;6263395;22;20174;-92
2021/11/09 03:17:03;;;;;;;0.83;0.60;;;9.90;99.90;;;;;;6270407;22;20182;-90
2021/11/09 03:19:38;;;;;;;1.10;0.60;;;9.90;99.90;;;;;;6271596;22;20249;-90
2021/11/09 03:45:04;;;;;;;4.47;0.90;;;10.10;99.90;;;;;;6271185;22;20183;-92
2021/11/09 03:47:38;;;;;;;1.87;0.80;;;10.00;99.90;;;;;;6271254;22;20190;-93
2021/11/09 03:50:13;;;;;;;1.60;0.73;;;10.00;99.90;;;;;;6270278;22;20182;-93
2021/11/09 03:52:48;;;;;;;1.13;0.60;;;10.10;99.90;;;;;;6268041;22;20176;-93
2021/11/09 03:55:26;;;;;;;2.13;0.67;;;10.20;99.90;;;;;;6267092;23;20166;-93
2021/11/09 03:58:07;;;;;;;1.00;0.50;;;10.20;99.90;;;;;;6243838;23;20171;-92
2021/11/09 04:00:44;;;;;;;1.00;0.60;;;10.30;99.90;;;;;;6267977;23;20206;-93
2021/11/09 04:03:27;;;;;;;1.47;0.53;;;10.30;99.90;;;;;;6266432;23;20206;-93
2021/11/09 04:06:07;;;;;;;2.70;0.80;;;10.30;99.90;;;;;;6260394;23;20175;-93
2021/11/09 04:08:42;;;;;;;1.70;0.40;;;10.30;99.90;;;;;;6238235;23;20175;-93
2021/11/09 04:11:17;;;;;;;2.97;0.80;;;10.20;99.90;;;;;;6260267;23;20183;-93
2021/11/09 04:13:56;;;;;;;1.30;0.70;;;10.20;99.90;;;;;;6268340;23;20259;-92
2021/11/09 04:16:39;;;;;;;0.90;0.60;;;10.20;99.90;;;;;;6241811;22;20218;-93
2021/11/09 04:19:30;;;;;;;0.60;0.50;;;10.20;99.90;;;;;;6253185;23;20221;-92
2021/11/09 04:25:08;;;;;;;1.00;0.60;;;10.20;99.90;;;;;;6272049;22;20201;-91
2021/11/09 04:27:49;;;;;;;1.87;0.60;;;10.30;99.90;;;;;;6269632;23;20191;-92
2021/11/09 04:30:42;;;;;;;2.60;1.07;;;10.40;99.90;;;;;;6245960;23;20187;-92
2021/11/09 04:33:47;;;;;;;2.50;0.70;;;10.40;99.90;;;;;;6269359;23;20188;-91
2021/11/09 05:02:26;;;;;;;3.00;0.60;;;10.60;99.90;;;;;;6256461;23;20207;-92
2021/11/09 05:08:23;;;;;;;1.43;0.40;;;10.60;99.90;;;;;;6202114;22;20202;-91
2021/11/09 05:10:56;;;;;;;1.23;0.40;;;10.60;99.90;;;;;;6261590;23;20172;-93
2021/11/09 05:13:27;;;;;;;1.23;0.40;;;10.60;99.90;;;;;;6254486;22;20293;-94
2021/11/09 05:16:00;;;;;;;1.07;0.53;;;10.60;99.90;;;;;;6262251;23;20169;-93
2021/11/09 05:18:32;;;;;;;3.60;0.87;;;10.60;99.90;;;;;;6255473;23;20183;-93
2021/11/09 05:21:07;;;;;;;1.43;0.63;;;10.70;99.90;;;;;;6256701;23;20604;-93
2021/11/09 05:23:39;;;;;;;1.50;0.40;;;10.80;99.90;;;;;;6265762;23;20223;-94
2021/11/09 05:26:10;;;;;;;1.90;0.60;;;10.90;99.90;;;;;;6265080;23;20179;-92
2021/11/09 05:28:43;;;;;;;0.67;0.40;;;10.90;99.90;;;;;;6265323;23;20191;-93
2021/11/09 05:31:15;;;;;;;0.83;0.67;;;11.00;99.90;;;;;;6264968;23;20175;-92
2021/11/09 05:33:52;;;;;;;0.60;0.60;;;11.10;99.90;;;;;;6263018;23;20194;-92
2021/11/09 05:36:31;;;;;;;1.87;0.50;;;11.10;99.90;;;;;;6265239;23;20664;-93
2021/11/09 05:39:10;;;;;;;1.97;0.47;;;11.10;99.90;;;;;;6260717;23;20172;-93
2021/11/09 05:41:43;;;;;;;2.50;0.60;;;11.30;99.90;;;;;;6235508;23;20192;-91
2021/11/09 05:44:16;;;;;;;0.80;0.60;;;11.20;99.90;;;;;;6262577;23;20167;-92
2021/11/09 05:46:47;;;;;;;1.70;0.50;;;11.30;99.90;;;;;;6258011;23;20168;-92
2021/11/09 05:49:18;;;;;;;0.70;0.50;;;11.40;99.90;;;;;;6225357;23;20615;-91
2021/11/09 05:51:53;;;;;;;1.13;0.60;;;11.40;99.90;;;;;;6251097;23;20178;-91
2021/11/09 05:54:24;;;;;;;1.87;0.67;;;11.40;99.90;;;;;;6251226;23;20188;-92
2021/11/09 05:56:55;;;;;;;1.10;0.60;;;11.40;99.90;;;;;;6258672;23;20198;-91
2021/11/09 05:59:26;;;;;;;1.50;0.77;;;11.40;99.90;;;;;;6260680;23;20195;-92
2021/11/09 06:01:57;;;;;;;1.57;0.80;;;11.40;99.90;;;;;;6253588;23;20502;-92
2021/11/09 06:04:29;;;;;;;1.30;0.70;;;11.40;99.90;;;;;;6256115;23;20191;-93
2021/11/09 06:07:02;;;;;;;1.07;0.70;;;11.40;99.90;;;;;;6227759;23;20180;-91
2021/11/09 06:09:33;;;;;;;3.07;0.70;;;11.50;99.90;;;;;;6250260;23;20206;-92
2021/11/09 06:12:05;;;;;;;1.43;0.77;;;11.50;99.90;;;;;;6227688;23;20204;-92
2021/11/09 06:14:36;;;;;;;1.53;0.77;;;11.60;99.90;;;;;;6253095;23;20269;-91
2021/11/09 06:17:07;;;;;;;2.07;1.00;;;11.70;99.90;;;;;;6252078;23;20167;-92
2021/11/09 06:19:39;;;;;;;1.57;0.60;;;11.60;99.90;;;;;;6251040;23;20206;-91
2021/11/09 06:22:12;;;;;;;1.33;0.60;;;11.60;99.90;;;;;;6252237;23;20223;-93
2021/11/09 06:24:43;;;;;;;2.17;0.67;;;11.50;99.90;;;;;;6251433;23;20577;-92
2021/11/09 06:27:14;;;;;;;1.13;0.70;;;11.60;99.90;;;;;;6250708;23;20199;-92
2021/11/09 06:29:45;;;;;;;1.20;0.57;;;11.70;99.90;;;;;;6251502;23;20176;-93
2021/11/09 06:32:17;;;;;;;1.80;0.70;;;11.70;99.90;;;;;;6252134;23;20187;-91
2021/11/09 06:34:48;;;;;;;1.37;0.60;;;11.80;99.90;;;;;;6252218;23;20198;-92
2021/11/09 06:37:22;;;;;;;1.40;0.87;;;11.80;99.90;;;;;;6251158;23;20183;-93
2021/11/09 06:39:54;;;;;;;2.77;0.70;;;11.90;99.90;;;;;;6251511;23;20180;-93
2021/11/09 06:42:25;;;;;;;0.80;0.50;;;11.90;99.90;;;;;;6251171;23;20715;-92
2021/11/09 06:44:56;;;;;;;0.67;0.60;;;12.10;99.90;;;;;;6225557;23;20168;-93
2021/11/09 06:47:27;;;;;;;3.83;0.90;;;12.00;99.90;;;;;;6252252;23;20183;-92
2021/11/09 06:49:59;;;;;;;2.17;0.83;;;12.40;99.90;;;;;;6254253;23;20164;-89
2021/11/09 06:52:32;;;;;;;1.00;0.70;;;12.40;99.90;;;;;;6227400;23;20175;-93
2021/11/09 06:55:03;;;;;;;1.67;0.73;;;12.30;99.90;;;;;;6251048;23;20172;-93
2021/11/09 06:57:43;;;;;;;3.10;1.27;;;12.40;99.90;;;;;;6250876;23;20164;-92
2021/11/09 07:00:17;;;;;;;1.40;0.87;;;12.40;99.90;;;;;;6252373;23;20507;-92
2021/11/09 07:02:48;;;;;;;2.73;0.87;;;12.40;99.90;;;;;;6255855;23;20195;-93
2021/11/09 07:05:20;;;;;;;1.40;0.90;;;12.50;99.90;;;;;;6257858;22;20226;-93
2021/11/09 07:07:53;;;;;;;2.50;0.77;;;12.40;99.90;;;;;;6252731;23;20168;-93
2021/11/09 07:13:35;;;;;;;2.83;1.20;;;12.50;99.90;;;;;;6251236;23;20252;-92
2021/11/09 07:16:07;;;;;;;2.20;0.80;;;12.40;99.90;;;;;;6252978;23;20622;-92
2021/11/09 07:18:39;;;;;;;1.53;1.30;;;12.40;99.90;;;;;;6255562;23;20180;-93
2021/11/09 07:21:10;;;;;;;1.30;0.80;;;12.60;99.90;;;;;;6269608;22;20172;-93
2021/11/09 07:23:44;;;;;;;1.30;0.80;;;12.50;99.90;;;;;;6270301;23;20163;-92
2021/11/09 07:26:15;;;;;;;1.30;0.80;;;12.60;99.90;;;;;;6270712;22;20202;-92
2021/11/09 07:28:46;;;;;;;3.03;0.93;;;12.70;99.90;;;;;;6267987;23;20164;-93
2021/11/09 07:31:18;;;;;;;2.10;0.97;;;12.70;99.90;;;;;;6263523;23;20175;-92
2021/11/09 07:33:51;;;;;;;1.43;0.90;;;12.70;99.90;;;;;;6253338;23;20183;-92
2021/11/09 07:36:23;;;;;;;2.83;1.10;;;12.60;99.90;;;;;;6255658;23;20208;-93
2021/11/09 07:38:58;;;;;;;1.10;0.97;;;12.60;99.90;;;;;;6253893;23;20175;-93
2021/11/09 07:41:29;;;;;;;2.43;1.20;;;12.50;99.90;;;;;;6249759;23;20218;-92
2021/11/09 07:44:03;;;;;;;1.40;0.90;;;12.50;99.90;;;;;;6250552;23;20203;-93
2021/11/09 07:46:34;;;;;;;1.40;0.90;;;12.40;99.90;;;;;;6250745;23;20199;-91
2021/11/09 07:49:06;;;;;;;3.10;1.07;;;12.50;99.90;;;;;;6251389;23;20168;-92
2021/11/09 07:51:37;;;;;;;1.10;0.80;;;12.50;99.90;;;;;;6251598;23;20492;-93
2021/11/09 07:54:10;;;;;;;2.57;1.53;;;12.60;99.90;;;;;;6225193;23;20172;-93
2021/11/09 07:56:42;;;;;;;3.40;1.00;;;12.60;99.90;;;;;;6250271;23;20175;-92
2021/11/09 07:59:30;;;;;;;1.20;0.70;;;12.40;99.90;;;;;;6227731;23;20175;-93
2021/11/09 08:02:05;;;;;;;2.60;1.10;;;12.40;99.90;;;;;;6256025;23;20267;-91
2021/11/09 08:04:44;;;;;;;2.40;0.90;;;12.50;99.90;;;;;;6258390;23;20249;-93
2021/11/09 08:07:20;;;;;;;13.17;10.17;;;12.40;99.90;;;;;;6230353;23;20183;-92
2021/11/09 08:09:54;;;;;;;1.23;0.83;;;12.60;99.90;;;;;;6227437;23;20167;-93
2021/11/09 08:12:25;;;;;;;0.80;0.80;;;12.70;99.90;;;;;;6251561;23;20620;-93
2021/11/09 08:14:57;;;;;;;2.00;1.00;;;12.50;99.90;;;;;;6251769;23;20180;-91
2021/11/09 08:17:27;;;;;;;2.23;0.80;;;12.50;99.90;;;;;;6253360;23;20168;-92
2021/11/09 08:19:58;;;;;;;0.87;0.80;;;12.40;99.90;;;;;;6251592;23;20203;-92
2021/11/09 08:22:30;;;;;;;2.97;1.10;;;12.20;99.90;;;;;;6253040;23;20267;-92
2021/11/09 08:25:03;;;;;;;1.10;0.83;;;12.20;99.90;;;;;;6254012;23;20170;-93
2021/11/09 08:27:34;;;;;;;1.40;0.77;;;12.10;99.90;;;;;;6251662;23;20188;-93
2021/11/09 08:30:06;;;;;;;4.73;4.37;;;12.10;99.90;;;;;;6251451;23;20168;-93
2021/11/09 08:32:38;;;;;;;1.90;0.87;;;12.00;99.90;;;;;;6252999;23;20253;-94
2021/11/09 08:35:12;;;;;;;1.87;0.80;;;11.90;99.90;;;;;;6251877;23;20164;-92
2021/11/09 08:37:43;;;;;;;3.70;0.80;;;12.00;99.90;;;;;;6251526;23;20175;-92
2021/11/09 08:40:19;;;;;;;2.20;0.60;;;11.90;99.90;;;;;;6251581;23;20179;-93
2021/11/09 08:42:54;;;;;;;2.87;0.90;;;11.80;99.90;;;;;;6252596;23;20220;-91
2021/11/09 08:45:31;;;;;;;1.83;0.93;;;11.70;99.90;;;;;;6229657;23;20171;-91
2021/11/09 08:48:10;;;;;;;2.40;0.80;;;11.50;99.90;;;;;;6251864;23;20243;-91
2021/11/09 08:50:41;;;;;;;1.30;0.80;;;11.40;99.90;;;;;;6251959;23;20212;-91
2021/11/09 08:53:19;;;;;;;2.83;0.80;;;11.10;99.90;;;;;;6251523;23;20172;-91
2021/11/09 08:56:14;;;;;;;1.40;0.90;;;11.00;99.90;;;;;;6250513;23;20405;-92
2021/11/09 09:04:11;;;;;;;1.13;0.87;;;10.60;99.90;;;;;;6251921;23;20508;-91
2021/11/09 09:04:37;;;;;;;1.27;0.80;;;10.60;99.90;;;;;;6251460;23;20183;-91
2021/11/09 09:07:08;;;;;;;1.00;0.73;;;10.30;99.90;;;;;;6250193;23;20183;-91
2021/11/09 09:09:39;;;;;;;1.00;0.80;;;10.20;99.90;;;;;;6250725;23;20164;-91
2021/11/09 09:12:13;;;;;;;1.53;0.93;;;10.10;99.90;;;;;;6251606;23;20179;-91
2021/11/09 09:14:44;;;;;;;1.53;1.00;;;9.90;99.90;;;;;;6251412;23;20229;-91
2021/11/09 09:17:15;;;;;;;3.80;0.93;;;9.80;99.90;;;;;;6250094;23;20187;-92
2021/11/09 09:19:49;;;;;;;2.13;1.00;;;9.70;99.90;;;;;;6253025;23;20187;-92
2021/11/09 09:22:25;;;;;;;2.17;1.20;;;9.60;99.90;;;;;;6251498;23;20214;-91
2021/11/09 09:25:11;;;;;;;2.00;0.87;;;9.60;99.90;;;;;;6251381;23;20194;-92
2021/11/09 09:30:34;;;;;;;1.23;0.90;;;9.30;99.90;;;;;;6250945;23;20189;-91
2021/11/09 09:33:34;;;;;;;2.73;1.07;;;9.20;99.90;;;;;;6253997;22;20222;-92
2021/11/09 09:55:44;;;;;;;1.40;1.10;;;8.60;99.90;;;;;;6249579;23;20204;-91
2021/11/09 09:58:15;;;;;;;1.33;0.80;;;8.50;99.90;;;;;;6251180;23;20174;-92
2021/11/09 10:00:49;;;;;;;1.83;0.70;;;8.40;99.90;;;;;;6250228;23;20251;-91
2021/11/09 10:03:20;;;;;;;2.50;1.00;;;8.40;99.90;;;;;;6252823;23;20244;-90
2021/11/09 10:05:52;;;;;;;1.53;0.93;;;8.30;99.90;;;;;;6249806;23;20548;-91
2021/11/09 10:08:24;;;;;;;2.60;0.90;;;8.30;99.90;;;;;;6251046;23;20175;-90
2021/11/09 10:10:55;;;;;;;2.20;0.80;;;8.30;99.90;;;;;;6223761;23;20171;-92
2021/11/09 10:13:26;;;;;;;1.33;0.90;;;8.20;99.90;;;;;;6250131;23;20187;-91
2021/11/09 10:15:59;;;;;;;2.13;1.13;;;8.20;99.90;;;;;;6249016;23;20218;-91
2021/11/09 10:18:32;;;;;;;1.77;1.17;;;8.20;99.90;;;;;;6250473;23;20195;-91
2021/11/09 10:21:06;;;;;;;1.30;1.00;;;8.10;99.90;;;;;;6223776;23;20179;-91
2021/11/09 10:23:37;;;;;;;1.40;1.00;;;8.10;99.90;;;;;;6250351;23;20223;-91
2021/11/09 10:26:13;;;;;;;6.63;3.27;;;8.00;99.90;;;;;;6249574;23;20180;-91
2021/11/09 10:28:45;;;;;;;2.43;0.87;;;7.90;99.90;;;;;;6249893;23;20171;-90
2021/11/09 10:31:18;;;;;;;1.10;0.80;;;7.90;99.90;;;;;;6250283;23;20625;-91
2021/11/09 10:33:51;;;;;;;0.93;0.77;;;7.80;99.90;;;;;;6250009;22;20532;-92
2021/11/09 10:36:26;;;;;;;2.27;1.30;;;7.80;99.90;;;;;;6249521;23;20179;-92
2021/11/09 10:39:15;;;;;;;3.00;0.80;;;7.80;99.90;;;;;;6250664;23;20178;-91
2021/11/09 10:42:08;;;;;;;0.80;0.60;;;7.70;99.90;;;;;;6255753;23;20192;-92
2021/11/09 10:44:42;;;;;;;0.80;0.70;;;7.60;99.90;;;;;;6249605;23;20257;-91
2021/11/09 10:47:23;;;;;;;1.57;0.70;;;7.60;99.90;;;;;;6249933;23;20238;-91
2021/11/09 10:49:55;;;;;;;0.90;0.60;;;7.60;99.90;;;;;;6250010;23;20178;-92
2021/11/09 10:52:29;;;;;;;0.90;0.70;;;7.60;99.90;;;;;;6249749;23;20188;-91
2021/11/09 10:55:07;;;;;;;2.27;0.53;;;7.60;99.90;;;;;;6249356;23;20177;-92
2021/11/09 11:03:50;;;;;;;1.10;0.63;;;7.50;99.90;;;;;;6200448;23;20200;-90
2021/11/09 11:06:24;;;;;;;1.23;0.60;;;7.50;99.90;;;;;;6249138;23;20218;-90
2021/11/09 11:08:57;;;;;;;0.50;0.50;;;7.50;99.90;;;;;;6249745;23;20206;-90
2021/11/09 11:11:31;;;;;;;1.97;0.60;;;7.50;99.90;;;;;;6250091;23;20187;-91
2021/11/09 11:14:11;;;;;;;0.50;0.40;;;7.50;99.90;;;;;;6249236;23;20188;-91
2021/11/09 11:16:44;;;;;;;0.93;0.67;;;7.40;99.90;;;;;;6249372;23;20239;-90
2021/11/09 11:19:18;;;;;;;0.80;0.60;;;7.40;99.90;;;;;;6249558;23;20245;-91
2021/11/09 11:21:50;;;;;;;0.60;0.50;;;7.40;99.90;;;;;;6249845;23;20568;-91
2021/11/09 11:24:23;;;;;;;0.63;0.50;;;7.40;99.90;;;;;;6249723;23;20196;-89
2021/11/09 11:26:55;;;;;;;0.63;0.40;;;7.40;99.90;;;;;;6249074;23;20190;-91
2021/11/09 11:29:30;;;;;;;1.00;0.50;;;7.40;99.90;;;;;;6249795;23;20168;-91
2021/11/09 11:32:03;;;;;;;0.77;0.57;;;7.40;99.90;;;;;;6252142;23;20181;-92
2021/11/09 11:34:35;;;;;;;0.47;0.40;;;7.40;99.90;;;;;;6253366;23;20167;-92
2021/11/09 11:37:07;;;;;;;0.40;0.40;;;7.40;99.90;;;;;;6253988;23;20180;-92
2021/11/09 11:39:41;;;;;;;0.50;0.33;;;7.40;99.90;;;;;;6254450;23;20559;-92
2021/11/09 11:42:16;;;;;;;0.73;0.30;;;7.40;99.90;;;;;;6251532;23;20179;-92
2021/11/09 11:44:57;;;;;;;0.33;0.30;;;7.50;99.90;;;;;;6253860;23;20202;-92
2021/11/09 11:47:29;;;;;;;0.40;0.40;;;7.50;99.90;;;;;;6258966;23;20252;-91
2021/11/09 11:50:09;;;;;;;0.47;0.40;;;7.60;99.90;;;;;;6270405;23;20231;-89
2021/11/09 11:52:46;;;;;;;1.57;0.30;;;7.60;99.90;;;;;;6269680;23;20174;-91
2021/11/09 11:55:26;;;;;;;0.47;0.47;;;7.60;99.90;;;;;;6254012;23;20229;-91
2021/11/09 11:58:06;;;;;;;0.73;0.57;;;7.60;99.90;;;;;;6252967;23;20181;-90
2021/11/09 12:00:47;;;;;;;0.30;0.30;;;7.70;99.90;;;;;;6252288;23;20179;-91
2021/11/09 12:03:38;;;;;;;1.23;0.50;;;7.70;99.90;;;;;;6253583;23;20176;-91
2021/11/09 12:06:29;;;;;;;0.40;0.27;;;7.70;99.90;;;;;;6228314;23;20210;-91
2021/11/09 12:09:01;;;;;;;0.20;0.20;;;7.80;99.90;;;;;;6251701;23;20179;-91
2021/11/09 12:11:42;;;;;;;0.20;0.20;;;7.80;99.90;;;;;;6251961;23;20165;-91
2021/11/09 12:14:16;;;;;;;0.30;0.20;;;7.90;99.90;;;;;;6251269;23;20563;-91
2021/11/09 12:17:03;;;;;;;0.30;0.30;;;7.80;99.90;;;;;;6251457;23;20184;-91
2021/11/09 12:19:50;;;;;;;0.37;0.20;;;7.90;99.90;;;;;;6251994;23;20497;-91
2021/11/09 12:22:26;;;;;;;0.23;0.23;;;8.00;99.90;;;;;;6251274;23;20175;-91
2021/11/09 12:24:58;;;;;;;0.30;0.30;;;8.00;99.90;;;;;;6252115;23;20233;-91
2021/11/09 12:27:51;;;;;;;0.23;0.20;;;8.00;99.90;;;;;;6250710;23;20179;-91
2021/11/09 12:30:43;;;;;;;1.10;0.27;;;8.00;99.90;;;;;;6251809;23;20175;-91
2021/11/09 12:33:16;;;;;;;0.43;0.20;;;8.10;99.90;;;;;;6252854;23;20187;-91
2021/11/09 12:36:25;;;;;;;0.23;0.23;;;8.10;99.90;;;;;;6253173;23;20214;-91
2021/11/09 12:38:59;;;;;;;0.10;0.10;;;8.10;99.90;;;;;;6223064;23;20252;-91
2021/11/09 12:41:37;;;;;;;0.20;0.20;;;8.10;99.90;;;;;;6253213;23;20249;-92
2021/11/09 12:44:08;;;;;;;0.27;0.27;;;8.20;99.90;;;;;;6262121;23;20198;-91
2021/11/09 12:46:41;;;;;;;0.20;0.20;;;8.20;99.90;;;;;;6242047;23;20667;-91
2021/11/09 12:49:16;;;;;;;0.30;0.30;;;8.20;99.90;;;;;;6259675;23;20185;-92
2021/11/09 12:51:49;;;;;;;0.30;0.20;;;8.20;99.90;;;;;;6254722;23;20198;-92
2021/11/09 12:54:27;;;;;;;0.20;0.20;;;8.30;99.90;;;;;;6253582;23;20624;-91
2021/11/09 12:57:07;;;;;;;0.40;0.20;;;8.30;99.90;;;;;;6253373;23;20184;-91
2021/11/09 12:59:42;;;;;;;0.17;0.17;;;8.30;99.90;;;;;;6257528;23;20605;-91
2021/11/09 13:02:17;;;;;;;0.77;0.20;;;8.40;99.90;;;;;;6253980;23;20294;-91
2021/11/09 13:04:51;;;;;;;0.33;0.20;;;8.40;99.90;;;;;;6255255;23;20196;-92
2021/11/09 13:07:30;;;;;;;0.20;0.20;;;8.40;99.90;;;;;;6254659;22;20167;-92
2021/11/09 13:10:12;;;;;;;1.00;0.20;;;8.40;99.90;;;;;;6254348;22;20218;-92
2021/11/09 13:12:45;;;;;;;0.23;0.20;;;8.40;99.90;;;;;;6252427;23;20168;-92
2021/11/09 13:15:21;;;;;;;0.43;0.20;;;8.40;99.90;;;;;;6251041;23;20164;-92
2021/11/09 13:17:55;;;;;;;0.10;0.10;;;8.50;99.90;;;;;;6253209;23;20171;-92
2021/11/09 13:20:37;;;;;;;0.10;0.10;;;8.50;99.90;;;;;;6251880;23;20175;-92
2021/11/09 13:23:11;;;;;;;0.13;0.13;;;8.50;99.90;;;;;;6251446;23;20180;-92
2021/11/09 13:25:46;;;;;;;0.10;0.10;;;8.60;99.90;;;;;;6251626;23;20218;-92
2021/11/09 13:28:21;;;;;;;0.20;0.20;;;8.60;99.90;;;;;;6255540;23;20186;-91
2021/11/09 13:30:54;;;;;;;0.10;0.10;;;8.60;99.90;;;;;;6253465;23;20511;-91
2021/11/09 13:33:27;;;;;;;0.20;0.20;;;8.80;99.90;;;;;;6255514;23;20192;-92
2021/11/09 13:35:59;;;;;;;0.20;0.20;;;8.80;99.90;;;;;;6250443;23;20183;-93
2021/11/09 13:38:36;;;;;;;0.10;0.10;;;8.80;99.90;;;;;;6253426;23;20190;-92
2021/11/09 13:41:15;;;;;;;0.90;0.10;;;9.00;99.90;;;;;;6253023;23;20251;-93
2021/11/09 13:43:51;;;;;;;1.47;0.20;;;9.20;99.90;;;;;;6250508;23;20180;-92
2021/11/09 13:46:25;;;;;;;0.47;0.30;;;9.40;99.90;;;;;;6249719;23;20588;-92
2021/11/09 13:48:58;;;;;;;0.67;0.50;;;9.50;99.90;;;;;;6250890;23;20678;-92
2021/11/09 13:51:32;;;;;;;0.20;0.20;;;9.70;99.90;;;;;;6254025;23;20205;-91
2021/11/09 13:54:07;;;;;;;0.20;0.20;;;9.70;99.90;;;;;;6250935;23;20175;-91
2021/11/09 13:56:42;;;;;;;0.20;0.20;;;9.70;99.90;;;;;;6256754;23;20177;-92
2021/11/09 13:59:15;;;;;;;0.33;0.20;;;9.60;99.90;;;;;;6252301;23;20172;-91
2021/11/09 14:01:54;;;;;;;0.10;0.10;;;9.50;99.90;;;;;;6233723;23;20183;-92
2021/11/09 14:04:45;;;;;;;0.50;0.30;;;9.30;99.90;;;;;;6271171;23;20158;-93
2021/11/09 14:07:41;;;;;;;0.53;0.30;;;9.20;99.90;;;;;;6270455;22;20186;-92
2021/11/09 14:13:26;;;;;;;0.87;0.63;;;9.10;99.90;;;;;;6251478;23;20180;-93
2021/11/09 14:18:59;;;;;;;6.43;5.33;;;9.00;99.90;;;;;;6250785;23;20568;-92
2021/11/09 14:21:35;;;;;;;1.03;0.50;;;9.00;99.90;;;;;;6250111;23;20172;-92
2021/11/09 14:24:14;;;;;;;2.13;0.63;;;9.00;99.90;;;;;;6250231;23;20206;-93
2021/11/09 14:26:47;;;;;;;7.90;4.00;;;8.90;99.90;;;;;;6248151;23;20206;-93
2021/11/09 14:29:36;;;;;;;4.00;1.77;;;8.90;99.90;;;;;;6223201;23;20179;-92
2021/11/09 14:32:15;;;;;;;17.73;6.10;;;8.80;99.90;;;;;;6250626;23;20253;-92
2021/11/09 14:35:00;;;;;;;88.43;29.33;;;8.80;99.90;;;;;;6252044;23;20221;-90
2021/11/09 14:37:35;;;;;;;8.67;6.27;;;8.80;99.90;;;;;;6249949;23;20195;-91
2021/11/09 14:40:10;;;;;;;13.27;3.20;;;8.70;99.90;;;;;;6249683;23;20210;-91
2021/11/09 14:45:34;;;;;;;10.50;2.07;;;8.50;99.90;;;;;;6245634;23;20601;-93
2021/11/09 14:48:12;;;;;;;13.27;2.00;;;8.50;99.90;;;;;;6252151;23;20170;-93
2021/11/09 14:50:48;;;;;;;5.60;1.20;;;8.50;99.90;;;;;;6250669;23;20186;-93
2021/11/09 14:53:22;;;;;;;7.07;1.90;;;8.50;99.90;;;;;;6251702;23;20175;-93
2021/11/09 14:55:58;;;;;;;10.87;2.50;;;8.50;99.90;;;;;;6250009;23;20183;-93
2021/11/09 14:58:37;;;;;;;10.23;3.30;;;8.50;99.90;;;;;;6224568;23;20176;-92
2021/11/09 15:01:26;;;;;;;11.93;3.37;;;8.50;99.90;;;;;;6255321;23;20194;-93
2021/11/09 15:04:06;;;;;;;9.17;1.87;;;8.40;99.90;;;;;;6250669;23;20534;-93
2021/11/09 15:06:46;;;;;;;130.07;48.13;;;8.50;99.90;;;;;;6249864;23;20205;-94
2021/11/09 15:09:46;;;;;;;34.17;11.30;;;8.50;99.90;;;;;;6268453;23;20213;-94
2021/11/09 15:12:31;;;;;;;37.23;11.47;;;8.60;99.90;;;;;;6265701;23;20206;-94
2021/11/09 15:26:26;;;;;;;8.43;2.03;;;8.40;99.90;;;;;;6262997;23;20187;-92